sensor_id;sensor_type;location;lat;lon;timestamp;temperature;humidity
7708;DHT22;3896;48.758;8.888;2022-11-28T00:01:08;6.70;99.90
7708;DHT22;3896;48.758;8.888;2022-11-28T00:03:34;6.70;99.90
7708;DHT22;3896;48.758;8.888;2022-11-28T00:06:04;6.70;99.90
7708;DHT22;3896;48.758;8.888;2022-11-28T00:08:30;6.60;99.90
7708;DHT22;3896;48.758;8.888;2022-11-28T00:10:56;6.70;99.90
7708;DHT22;3896;48.758;8.888;2022-11-28T00:13:21;6.60;99.90
7708;DHT22;3896;48.758;8.888;2022-11-28T00:15:58;6.60;99.90
7708;DHT22;3896;48.758;8.888;2022-11-28T00:18:24;6.60;99.90
7708;DHT22;3896;48.758;8.888;2022-11-28T00:20:50;6.60;99.90
7708;DHT22;3896;48.758;8.888;2022-11-28T00:23:16;6.60;99.90
7708;DHT22;3896;48.758;8.888;2022-11-28T00:25:41;6.60;99.90
7708;DHT22;3896;48.758;8.888;2022-11-28T00:28:07;6.60;99.90
7708;DHT22;3896;48.758;8.888;2022-11-28T00:30:36;6.60;99.90
7708;DHT22;3896;48.758;8.888;2022-11-28T00:33:02;6.60;99.90
7708;DHT22;3896;48.758;8.888;2022-11-28T00:35:28;6.60;99.90
7708;DHT22;3896;48.758;8.888;2022-11-28T00:37:54;6.60;99.90
7708;DHT22;3896;48.758;8.888;2022-11-28T00:40:20;6.60;99.90
7708;DHT22;3896;48.758;8.888;2022-11-28T00:42:45;6.50;99.90
7708;DHT22;3896;48.758;8.888;2022-11-28T00:45:11;6.50;99.90
7708;DHT22;3896;48.758;8.888;2022-11-28T00:47:37;6.50;99.90
7708;DHT22;3896;48.758;8.888;2022-11-28T00:50:02;6.50;99.90
7708;DHT22;3896;48.758;8.888;2022-11-28T00:52:31;6.50;99.90
7708;DHT22;3896;48.758;8.888;2022-11-28T00:54:56;6.50;99.90
7708;DHT22;3896;48.758;8.888;2022-11-28T00:57:22;6.50;99.90
7708;DHT22;3896;48.758;8.888;2022-11-28T00:59:47;6.50;99.90
7708;DHT22;3896;48.758;8.888;2022-11-28T01:02:13;6.50;99.90
7708;DHT22;3896;48.758;8.888;2022-11-28T01:04:39;6.50;99.90
7708;DHT22;3896;48.758;8.888;2022-11-28T01:07:05;6.50;99.90
7708;DHT22;3896;48.758;8.888;2022-11-28T01:09:30;6.50;99.90
7708;DHT22;3896;48.758;8.888;2022-11-28T01:11:56;6.50;99.90
7708;DHT22;3896;48.758;8.888;2022-11-28T01:14:23;6.50;99.90
7708;DHT22;3896;48.758;8.888;2022-11-28T01:16:49;6.50;99.90
7708;DHT22;3896;48.758;8.888;2022-11-28T01:19:15;6.50;99.80
7708;DHT22;3896;48.758;8.888;2022-11-28T01:21:41;6.40;99.60
7708;DHT22;3896;48.758;8.888;2022-11-28T01:24:07;6.40;99.50
7708;DHT22;3896;48.758;8.888;2022-11-28T01:26:33;6.40;99.40
7708;DHT22;3896;48.758;8.888;2022-11-28T01:28:59;6.40;99.30
7708;DHT22;3896;48.758;8.888;2022-11-28T01:31:27;6.40;99.40
7708;DHT22;3896;48.758;8.888;2022-11-28T01:33:54;6.40;99.40
7708;DHT22;3896;48.758;8.888;2022-11-28T01:36:20;6.40;99.30
7708;DHT22;3896;48.758;8.888;2022-11-28T01:38:47;6.40;99.20
7708;DHT22;3896;48.758;8.888;2022-11-28T01:41:14;6.40;99.10
7708;DHT22;3896;48.758;8.888;2022-11-28T01:46:28;6.40;99.00
7708;DHT22;3896;48.758;8.888;2022-11-28T01:48:57;6.40;99.40
7708;DHT22;3896;48.758;8.888;2022-11-28T01:51:24;6.40;99.00
7708;DHT22;3896;48.758;8.888;2022-11-28T01:53:50;6.40;98.80
7708;DHT22;3896;48.758;8.888;2022-11-28T01:56:24;6.40;98.70
7708;DHT22;3896;48.758;8.888;2022-11-28T01:58:54;6.40;98.60
7708;DHT22;3896;48.758;8.888;2022-11-28T02:01:23;6.40;98.60
7708;DHT22;3896;48.758;8.888;2022-11-28T02:03:50;6.40;98.70
7708;DHT22;3896;48.758;8.888;2022-11-28T02:06:19;6.40;98.70
7708;DHT22;3896;48.758;8.888;2022-11-28T02:08:45;6.40;98.60
7708;DHT22;3896;48.758;8.888;2022-11-28T02:13:58;6.40;98.50
7708;DHT22;3896;48.758;8.888;2022-11-28T02:19:42;6.40;98.50
7708;DHT22;3896;48.758;8.888;2022-11-28T02:22:22;6.40;98.40
7708;DHT22;3896;48.758;8.888;2022-11-28T02:24:55;6.40;98.60
7708;DHT22;3896;48.758;8.888;2022-11-28T02:43:35;6.50;98.20
7708;DHT22;3896;48.758;8.888;2022-11-28T02:48:56;6.50;98.30
7708;DHT22;3896;48.758;8.888;2022-11-28T02:53:51;6.50;98.30
7708;DHT22;3896;48.758;8.888;2022-11-28T02:56:18;6.50;98.20
7708;DHT22;3896;48.758;8.888;2022-11-28T02:58:43;6.50;98.00
7708;DHT22;3896;48.758;8.888;2022-11-28T03:01:16;6.50;97.90
7708;DHT22;3896;48.758;8.888;2022-11-28T03:06:31;6.50;98.00
7708;DHT22;3896;48.758;8.888;2022-11-28T03:23:12;6.60;96.80
7708;DHT22;3896;48.758;8.888;2022-11-28T03:31:07;6.60;96.80
7708;DHT22;3896;48.758;8.888;2022-11-28T03:33:37;6.60;96.90
7708;DHT22;3896;48.758;8.888;2022-11-28T03:36:12;6.50;97.20
7708;DHT22;3896;48.758;8.888;2022-11-28T03:38:43;6.50;97.40
7708;DHT22;3896;48.758;8.888;2022-11-28T03:41:15;6.50;97.40
7708;DHT22;3896;48.758;8.888;2022-11-28T03:43:53;6.50;97.30
7708;DHT22;3896;48.758;8.888;2022-11-28T03:46:22;6.50;97.10
7708;DHT22;3896;48.758;8.888;2022-11-28T03:48:52;6.60;97.40
7708;DHT22;3896;48.758;8.888;2022-11-28T03:51:45;6.60;97.50
7708;DHT22;3896;48.758;8.888;2022-11-28T03:54:27;6.50;97.30
7708;DHT22;3896;48.758;8.888;2022-11-28T03:57:23;6.50;97.50
7708;DHT22;3896;48.758;8.888;2022-11-28T03:59:48;6.50;97.40
7708;DHT22;3896;48.758;8.888;2022-11-28T04:05:24;6.50;97.70
7708;DHT22;3896;48.758;8.888;2022-11-28T04:07:57;6.50;97.80
7708;DHT22;3896;48.758;8.888;2022-11-28T04:10:43;6.50;97.90
7708;DHT22;3896;48.758;8.888;2022-11-28T04:13:25;6.50;97.70
7708;DHT22;3896;48.758;8.888;2022-11-28T04:16:01;6.50;97.80
7708;DHT22;3896;48.758;8.888;2022-11-28T04:21:13;6.50;97.60
7708;DHT22;3896;48.758;8.888;2022-11-28T04:23:42;6.50;97.60
7708;DHT22;3896;48.758;8.888;2022-11-28T04:26:18;6.50;97.90
7708;DHT22;3896;48.758;8.888;2022-11-28T04:28:47;6.40;98.00
7708;DHT22;3896;48.758;8.888;2022-11-28T04:31:15;6.40;98.10
7708;DHT22;3896;48.758;8.888;2022-11-28T04:33:45;6.40;98.20
7708;DHT22;3896;48.758;8.888;2022-11-28T04:36:15;6.40;98.20
7708;DHT22;3896;48.758;8.888;2022-11-28T04:38:44;6.50;98.20
7708;DHT22;3896;48.758;8.888;2022-11-28T04:41:44;6.40;98.20
7708;DHT22;3896;48.758;8.888;2022-11-28T04:46:51;6.40;98.20
7708;DHT22;3896;48.758;8.888;2022-11-28T04:49:17;6.40;98.30
7708;DHT22;3896;48.758;8.888;2022-11-28T04:54:56;6.40;98.00
7708;DHT22;3896;48.758;8.888;2022-11-28T04:57:34;6.40;98.10
7708;DHT22;3896;48.758;8.888;2022-11-28T05:00:03;6.40;98.00
7708;DHT22;3896;48.758;8.888;2022-11-28T05:02:30;6.40;98.00
7708;DHT22;3896;48.758;8.888;2022-11-28T05:04:56;6.40;98.00
7708;DHT22;3896;48.758;8.888;2022-11-28T05:07:22;6.40;98.10
7708;DHT22;3896;48.758;8.888;2022-11-28T05:09:49;6.40;98.10
7708;DHT22;3896;48.758;8.888;2022-11-28T05:12:14;6.40;98.10
7708;DHT22;3896;48.758;8.888;2022-11-28T05:14:40;6.40;98.00
7708;DHT22;3896;48.758;8.888;2022-11-28T05:17:06;6.30;97.90
7708;DHT22;3896;48.758;8.888;2022-11-28T05:19:32;6.30;98.00
7708;DHT22;3896;48.758;8.888;2022-11-28T05:21:57;6.40;98.10
7708;DHT22;3896;48.758;8.888;2022-11-28T05:24:23;6.30;98.00
7708;DHT22;3896;48.758;8.888;2022-11-28T05:26:49;6.30;98.00
7708;DHT22;3896;48.758;8.888;2022-11-28T05:29:15;6.30;98.00
7708;DHT22;3896;48.758;8.888;2022-11-28T05:31:41;6.30;98.00
7708;DHT22;3896;48.758;8.888;2022-11-28T05:34:06;6.30;98.20
7708;DHT22;3896;48.758;8.888;2022-11-28T05:36:32;6.30;98.10
7708;DHT22;3896;48.758;8.888;2022-11-28T05:38:58;6.30;98.30
7708;DHT22;3896;48.758;8.888;2022-11-28T05:41:26;6.30;98.40
7708;DHT22;3896;48.758;8.888;2022-11-28T05:43:52;6.30;98.40
7708;DHT22;3896;48.758;8.888;2022-11-28T05:46:19;6.30;98.50
7708;DHT22;3896;48.758;8.888;2022-11-28T05:48:44;6.30;98.60
7708;DHT22;3896;48.758;8.888;2022-11-28T05:51:10;6.30;98.70
7708;DHT22;3896;48.758;8.888;2022-11-28T05:53:36;6.30;98.90
7708;DHT22;3896;48.758;8.888;2022-11-28T05:56:09;6.30;99.20
7708;DHT22;3896;48.758;8.888;2022-11-28T05:58:35;6.20;99.20
7708;DHT22;3896;48.758;8.888;2022-11-28T06:01:27;6.20;99.30
7708;DHT22;3896;48.758;8.888;2022-11-28T06:03:54;6.20;99.10
7708;DHT22;3896;48.758;8.888;2022-11-28T06:06:29;6.20;99.60
7708;DHT22;3896;48.758;8.888;2022-11-28T06:08:55;6.20;99.80
7708;DHT22;3896;48.758;8.888;2022-11-28T06:11:23;6.20;99.90
7708;DHT22;3896;48.758;8.888;2022-11-28T06:13:49;6.10;99.90
7708;DHT22;3896;48.758;8.888;2022-11-28T06:16:17;6.10;99.80
7708;DHT22;3896;48.758;8.888;2022-11-28T06:18:43;6.10;99.90
7708;DHT22;3896;48.758;8.888;2022-11-28T06:21:10;6.10;99.90
7708;DHT22;3896;48.758;8.888;2022-11-28T06:23:36;6.10;99.90
7708;DHT22;3896;48.758;8.888;2022-11-28T06:26:11;6.10;99.90
7708;DHT22;3896;48.758;8.888;2022-11-28T06:28:37;6.10;99.90
7708;DHT22;3896;48.758;8.888;2022-11-28T06:31:03;6.10;99.90
7708;DHT22;3896;48.758;8.888;2022-11-28T06:33:29;6.10;99.90
7708;DHT22;3896;48.758;8.888;2022-11-28T06:36:03;6.10;99.90
7708;DHT22;3896;48.758;8.888;2022-11-28T06:38:29;6.10;99.90
7708;DHT22;3896;48.758;8.888;2022-11-28T06:40:57;6.10;99.90
7708;DHT22;3896;48.758;8.888;2022-11-28T06:43:23;6.10;99.90
7708;DHT22;3896;48.758;8.888;2022-11-28T06:45:48;6.10;99.90
7708;DHT22;3896;48.758;8.888;2022-11-28T06:48:14;6.10;99.90
7708;DHT22;3896;48.758;8.888;2022-11-28T06:50:40;6.10;99.90
7708;DHT22;3896;48.758;8.888;2022-11-28T06:53:05;6.10;99.90
7708;DHT22;3896;48.758;8.888;2022-11-28T06:55:31;6.10;99.90
7708;DHT22;3896;48.758;8.888;2022-11-28T06:57:56;6.10;99.90
7708;DHT22;3896;48.758;8.888;2022-11-28T07:00:22;6.00;99.90
7708;DHT22;3896;48.758;8.888;2022-11-28T07:02:48;6.00;99.90
7708;DHT22;3896;48.758;8.888;2022-11-28T07:05:13;6.00;99.90
7708;DHT22;3896;48.758;8.888;2022-11-28T07:07:41;6.00;99.90
7708;DHT22;3896;48.758;8.888;2022-11-28T07:10:07;6.00;99.90
7708;DHT22;3896;48.758;8.888;2022-11-28T07:12:33;6.00;99.90
7708;DHT22;3896;48.758;8.888;2022-11-28T07:14:59;6.10;99.90
7708;DHT22;3896;48.758;8.888;2022-11-28T07:17:24;6.10;99.90
7708;DHT22;3896;48.758;8.888;2022-11-28T07:19:50;6.10;99.90
7708;DHT22;3896;48.758;8.888;2022-11-28T07:22:15;6.10;99.90
7708;DHT22;3896;48.758;8.888;2022-11-28T07:24:41;6.10;99.90
7708;DHT22;3896;48.758;8.888;2022-11-28T07:27:07;6.10;99.90
7708;DHT22;3896;48.758;8.888;2022-11-28T07:29:32;6.10;99.90
7708;DHT22;3896;48.758;8.888;2022-11-28T07:32:04;6.10;99.90
7708;DHT22;3896;48.758;8.888;2022-11-28T07:34:31;6.10;99.90
7708;DHT22;3896;48.758;8.888;2022-11-28T07:36:57;6.10;99.90
7708;DHT22;3896;48.758;8.888;2022-11-28T07:39:23;6.10;99.90
7708;DHT22;3896;48.758;8.888;2022-11-28T07:41:49;6.10;99.90
7708;DHT22;3896;48.758;8.888;2022-11-28T07:44:14;6.10;99.90
7708;DHT22;3896;48.758;8.888;2022-11-28T07:46:43;6.10;99.90
7708;DHT22;3896;48.758;8.888;2022-11-28T07:49:10;6.10;99.90
7708;DHT22;3896;48.758;8.888;2022-11-28T07:51:35;6.20;99.90
7708;DHT22;3896;48.758;8.888;2022-11-28T07:54:03;6.20;99.90
7708;DHT22;3896;48.758;8.888;2022-11-28T07:56:31;6.20;99.90
7708;DHT22;3896;48.758;8.888;2022-11-28T07:58:58;6.20;99.90
7708;DHT22;3896;48.758;8.888;2022-11-28T08:01:27;6.20;99.90
7708;DHT22;3896;48.758;8.888;2022-11-28T08:03:54;6.20;99.90
7708;DHT22;3896;48.758;8.888;2022-11-28T08:06:22;6.20;99.90
7708;DHT22;3896;48.758;8.888;2022-11-28T08:08:49;6.20;99.90
7708;DHT22;3896;48.758;8.888;2022-11-28T08:11:16;6.30;99.90
7708;DHT22;3896;48.758;8.888;2022-11-28T08:13:43;6.30;99.90
7708;DHT22;3896;48.758;8.888;2022-11-28T08:16:14;6.30;99.90
7708;DHT22;3896;48.758;8.888;2022-11-28T08:18:41;6.30;99.90
7708;DHT22;3896;48.758;8.888;2022-11-28T08:21:13;6.30;99.90
7708;DHT22;3896;48.758;8.888;2022-11-28T08:23:39;6.30;99.90
7708;DHT22;3896;48.758;8.888;2022-11-28T08:26:07;6.40;99.90
7708;DHT22;3896;48.758;8.888;2022-11-28T08:28:34;6.40;99.90
7708;DHT22;3896;48.758;8.888;2022-11-28T08:31:17;6.40;99.90
7708;DHT22;3896;48.758;8.888;2022-11-28T08:33:44;6.40;99.90
7708;DHT22;3896;48.758;8.888;2022-11-28T08:36:12;6.50;99.90
7708;DHT22;3896;48.758;8.888;2022-11-28T08:38:39;6.50;99.90
7708;DHT22;3896;48.758;8.888;2022-11-28T08:41:08;6.50;99.90
7708;DHT22;3896;48.758;8.888;2022-11-28T08:43:35;6.50;99.90
7708;DHT22;3896;48.758;8.888;2022-11-28T08:46:05;6.60;99.90
7708;DHT22;3896;48.758;8.888;2022-11-28T08:48:33;6.60;99.90
7708;DHT22;3896;48.758;8.888;2022-11-28T08:50:59;6.60;99.90
7708;DHT22;3896;48.758;8.888;2022-11-28T08:53:25;6.70;99.90
7708;DHT22;3896;48.758;8.888;2022-11-28T08:55:50;6.70;99.90
7708;DHT22;3896;48.758;8.888;2022-11-28T08:58:16;6.70;99.90
7708;DHT22;3896;48.758;8.888;2022-11-28T09:00:42;6.80;99.90
7708;DHT22;3896;48.758;8.888;2022-11-28T09:03:13;6.80;99.90
7708;DHT22;3896;48.758;8.888;2022-11-28T09:05:39;6.80;99.90
7708;DHT22;3896;48.758;8.888;2022-11-28T09:08:07;6.90;99.90
7708;DHT22;3896;48.758;8.888;2022-11-28T09:10:35;6.90;99.90
7708;DHT22;3896;48.758;8.888;2022-11-28T09:13:01;7.00;99.90
7708;DHT22;3896;48.758;8.888;2022-11-28T09:15:27;7.00;99.90
7708;DHT22;3896;48.758;8.888;2022-11-28T09:17:52;7.00;99.90
7708;DHT22;3896;48.758;8.888;2022-11-28T09:20:18;7.10;99.90
7708;DHT22;3896;48.758;8.888;2022-11-28T09:22:45;7.10;99.90
7708;DHT22;3896;48.758;8.888;2022-11-28T09:25:12;7.10;99.90
7708;DHT22;3896;48.758;8.888;2022-11-28T09:27:38;7.20;99.90
7708;DHT22;3896;48.758;8.888;2022-11-28T09:30:06;7.20;99.90
7708;DHT22;3896;48.758;8.888;2022-11-28T09:32:33;7.30;99.90
7708;DHT22;3896;48.758;8.888;2022-11-28T09:34:59;7.30;99.90
7708;DHT22;3896;48.758;8.888;2022-11-28T09:37:27;7.30;99.90
7708;DHT22;3896;48.758;8.888;2022-11-28T09:39:53;7.40;99.90
7708;DHT22;3896;48.758;8.888;2022-11-28T09:42:29;7.40;99.90
7708;DHT22;3896;48.758;8.888;2022-11-28T09:45:16;7.40;99.90
7708;DHT22;3896;48.758;8.888;2022-11-28T09:47:46;7.50;99.90
7708;DHT22;3896;48.758;8.888;2022-11-28T09:50:17;7.50;99.90
7708;DHT22;3896;48.758;8.888;2022-11-28T09:58:00;7.60;99.90
7708;DHT22;3896;48.758;8.888;2022-11-28T10:00:36;7.70;99.90
7708;DHT22;3896;48.758;8.888;2022-11-28T10:08:26;7.80;99.90
7708;DHT22;3896;48.758;8.888;2022-11-28T10:11:38;7.90;99.90
7708;DHT22;3896;48.758;8.888;2022-11-28T10:17:23;8.00;99.90
7708;DHT22;3896;48.758;8.888;2022-11-28T10:19:52;8.00;99.90
7708;DHT22;3896;48.758;8.888;2022-11-28T10:22:25;8.10;99.90
7708;DHT22;3896;48.758;8.888;2022-11-28T10:24:56;8.20;99.90
7708;DHT22;3896;48.758;8.888;2022-11-28T10:27:31;8.20;99.90
7708;DHT22;3896;48.758;8.888;2022-11-28T10:30:03;8.30;99.90
7708;DHT22;3896;48.758;8.888;2022-11-28T10:33:32;8.40;99.90
7708;DHT22;3896;48.758;8.888;2022-11-28T10:35:49;8.40;99.90
7708;DHT22;3896;48.758;8.888;2022-11-28T10:38:16;8.50;99.90
7708;DHT22;3896;48.758;8.888;2022-11-28T10:40:59;8.60;99.90
7708;DHT22;3896;48.758;8.888;2022-11-28T10:43:44;8.60;99.90
7708;DHT22;3896;48.758;8.888;2022-11-28T10:49:42;8.70;99.90
7708;DHT22;3896;48.758;8.888;2022-11-28T10:52:19;8.70;99.90
7708;DHT22;3896;48.758;8.888;2022-11-28T10:55:50;8.80;99.90
7708;DHT22;3896;48.758;8.888;2022-11-28T11:00:31;8.90;99.90
7708;DHT22;3896;48.758;8.888;2022-11-28T11:02:59;9.00;99.90
7708;DHT22;3896;48.758;8.888;2022-11-28T11:05:32;9.00;99.90
7708;DHT22;3896;48.758;8.888;2022-11-28T11:08:19;9.10;99.90
7708;DHT22;3896;48.758;8.888;2022-11-28T11:10:50;9.10;99.80
7708;DHT22;3896;48.758;8.888;2022-11-28T11:13:21;9.10;99.40
7708;DHT22;3896;48.758;8.888;2022-11-28T11:16:06;9.20;99.10
7708;DHT22;3896;48.758;8.888;2022-11-28T11:18:49;9.20;99.00
7708;DHT22;3896;48.758;8.888;2022-11-28T11:21:16;9.30;99.10
7708;DHT22;3896;48.758;8.888;2022-11-28T11:23:44;9.30;99.10
7708;DHT22;3896;48.758;8.888;2022-11-28T11:26:24;9.30;99.10
7708;DHT22;3896;48.758;8.888;2022-11-28T11:28:51;9.40;99.30
7708;DHT22;3896;48.758;8.888;2022-11-28T11:31:28;9.40;99.60
7708;DHT22;3896;48.758;8.888;2022-11-28T11:34:04;9.50;99.60
7708;DHT22;3896;48.758;8.888;2022-11-28T11:36:32;9.50;99.80
7708;DHT22;3896;48.758;8.888;2022-11-28T11:39:14;9.50;99.60
7708;DHT22;3896;48.758;8.888;2022-11-28T11:41:46;9.50;99.60
7708;DHT22;3896;48.758;8.888;2022-11-28T11:46:54;9.60;99.20
7708;DHT22;3896;48.758;8.888;2022-11-28T11:49:47;9.60;99.00
7708;DHT22;3896;48.758;8.888;2022-11-28T11:52:22;9.60;99.00
7708;DHT22;3896;48.758;8.888;2022-11-28T11:55:12;9.70;99.20
7708;DHT22;3896;48.758;8.888;2022-11-28T11:57:49;9.70;99.10
7708;DHT22;3896;48.758;8.888;2022-11-28T12:00:19;9.70;99.40
7708;DHT22;3896;48.758;8.888;2022-11-28T12:02:51;9.80;99.10
7708;DHT22;3896;48.758;8.888;2022-11-28T12:05:19;9.80;99.20
7708;DHT22;3896;48.758;8.888;2022-11-28T12:08:02;9.90;99.30
7708;DHT22;3896;48.758;8.888;2022-11-28T12:10:33;9.90;99.50
7708;DHT22;3896;48.758;8.888;2022-11-28T12:13:01;9.90;99.60
7708;DHT22;3896;48.758;8.888;2022-11-28T12:18:35;10.00;99.20
7708;DHT22;3896;48.758;8.888;2022-11-28T12:21:16;10.00;99.40
7708;DHT22;3896;48.758;8.888;2022-11-28T12:24:08;10.00;99.40
7708;DHT22;3896;48.758;8.888;2022-11-28T12:26:50;10.10;99.40
7708;DHT22;3896;48.758;8.888;2022-11-28T12:29:27;10.10;99.30
7708;DHT22;3896;48.758;8.888;2022-11-28T12:32:11;10.20;99.30
7708;DHT22;3896;48.758;8.888;2022-11-28T12:35:04;10.20;99.30
7708;DHT22;3896;48.758;8.888;2022-11-28T12:42:52;10.30;99.70
7708;DHT22;3896;48.758;8.888;2022-11-28T12:48:23;10.30;99.60
7708;DHT22;3896;48.758;8.888;2022-11-28T12:51:10;10.30;99.60
7708;DHT22;3896;48.758;8.888;2022-11-28T12:54:05;10.30;99.70
7708;DHT22;3896;48.758;8.888;2022-11-28T13:02:17;10.30;99.70
7708;DHT22;3896;48.758;8.888;2022-11-28T13:04:51;10.30;99.90
7708;DHT22;3896;48.758;8.888;2022-11-28T13:10:38;10.40;99.90
7708;DHT22;3896;48.758;8.888;2022-11-28T13:18:40;10.40;99.90
7708;DHT22;3896;48.758;8.888;2022-11-28T13:21:24;10.40;99.90
7708;DHT22;3896;48.758;8.888;2022-11-28T13:29:21;10.50;99.90
7708;DHT22;3896;48.758;8.888;2022-11-28T13:31:53;10.50;99.90
7708;DHT22;3896;48.758;8.888;2022-11-28T13:34:20;10.50;99.90
7708;DHT22;3896;48.758;8.888;2022-11-28T13:39:43;10.50;99.90
7708;DHT22;3896;48.758;8.888;2022-11-28T13:45:05;10.50;99.90
7708;DHT22;3896;48.758;8.888;2022-11-28T13:47:43;10.50;99.90
7708;DHT22;3896;48.758;8.888;2022-11-28T13:53:19;10.50;99.90
7708;DHT22;3896;48.758;8.888;2022-11-28T13:55:50;10.40;99.90
7708;DHT22;3896;48.758;8.888;2022-11-28T13:58:25;10.40;99.90
7708;DHT22;3896;48.758;8.888;2022-11-28T14:03:32;10.50;99.90
7708;DHT22;3896;48.758;8.888;2022-11-28T14:06:01;10.50;99.90
7708;DHT22;3896;48.758;8.888;2022-11-28T14:08:34;10.50;99.90
7708;DHT22;3896;48.758;8.888;2022-11-28T14:17:07;10.40;99.90
7708;DHT22;3896;48.758;8.888;2022-11-28T14:19:51;10.40;99.90
7708;DHT22;3896;48.758;8.888;2022-11-28T14:23:01;10.40;99.90
7708;DHT22;3896;48.758;8.888;2022-11-28T14:25:32;10.40;99.90
7708;DHT22;3896;48.758;8.888;2022-11-28T14:28:04;10.40;99.90
7708;DHT22;3896;48.758;8.888;2022-11-28T14:30:37;10.40;99.90
7708;DHT22;3896;48.758;8.888;2022-11-28T14:33:16;10.40;99.90
7708;DHT22;3896;48.758;8.888;2022-11-28T14:43:28;10.40;99.90
7708;DHT22;3896;48.758;8.888;2022-11-28T14:46:17;10.40;99.90
7708;DHT22;3896;48.758;8.888;2022-11-28T14:54:34;10.30;99.90
7708;DHT22;3896;48.758;8.888;2022-11-28T14:57:00;10.30;99.90
7708;DHT22;3896;48.758;8.888;2022-11-28T14:59:32;10.30;99.90
7708;DHT22;3896;48.758;8.888;2022-11-28T15:05:16;10.20;99.90
7708;DHT22;3896;48.758;8.888;2022-11-28T15:10:37;10.10;99.90
7708;DHT22;3896;48.758;8.888;2022-11-28T15:13:31;10.10;99.90
7708;DHT22;3896;48.758;8.888;2022-11-28T15:16:02;10.10;99.90
7708;DHT22;3896;48.758;8.888;2022-11-28T15:18:30;10.10;99.90
7708;DHT22;3896;48.758;8.888;2022-11-28T15:20:59;10.10;99.90
7708;DHT22;3896;48.758;8.888;2022-11-28T15:23:36;10.10;99.90
7708;DHT22;3896;48.758;8.888;2022-11-28T15:26:03;10.10;99.90
7708;DHT22;3896;48.758;8.888;2022-11-28T15:28:30;10.00;99.90
7708;DHT22;3896;48.758;8.888;2022-11-28T15:31:00;10.00;99.90
7708;DHT22;3896;48.758;8.888;2022-11-28T15:33:28;10.00;99.90
7708;DHT22;3896;48.758;8.888;2022-11-28T15:36:00;10.00;99.90
7708;DHT22;3896;48.758;8.888;2022-11-28T15:38:29;9.90;99.90
7708;DHT22;3896;48.758;8.888;2022-11-28T15:40:56;9.90;99.90
7708;DHT22;3896;48.758;8.888;2022-11-28T15:43:23;9.90;99.90
7708;DHT22;3896;48.758;8.888;2022-11-28T15:45:51;9.90;99.90
7708;DHT22;3896;48.758;8.888;2022-11-28T15:50:53;9.80;99.90
7708;DHT22;3896;48.758;8.888;2022-11-28T15:53:20;9.80;99.90
7708;DHT22;3896;48.758;8.888;2022-11-28T15:55:46;9.80;99.90
7708;DHT22;3896;48.758;8.888;2022-11-28T15:58:24;9.80;99.90
7708;DHT22;3896;48.758;8.888;2022-11-28T16:01:00;9.70;99.90
7708;DHT22;3896;48.758;8.888;2022-11-28T16:03:40;9.70;99.90
7708;DHT22;3896;48.758;8.888;2022-11-28T16:06:08;9.70;99.90
7708;DHT22;3896;48.758;8.888;2022-11-28T16:08:37;9.70;99.90
7708;DHT22;3896;48.758;8.888;2022-11-28T16:11:08;9.60;99.90
7708;DHT22;3896;48.758;8.888;2022-11-28T16:13:37;9.60;99.90
7708;DHT22;3896;48.758;8.888;2022-11-28T16:16:09;9.60;99.90
7708;DHT22;3896;48.758;8.888;2022-11-28T16:18:35;9.60;99.90
7708;DHT22;3896;48.758;8.888;2022-11-28T16:21:01;9.50;99.90
7708;DHT22;3896;48.758;8.888;2022-11-28T16:23:35;9.50;99.90
7708;DHT22;3896;48.758;8.888;2022-11-28T16:26:34;9.50;99.90
7708;DHT22;3896;48.758;8.888;2022-11-28T16:31:33;9.50;99.90
7708;DHT22;3896;48.758;8.888;2022-11-28T16:33:59;9.40;99.90
7708;DHT22;3896;48.758;8.888;2022-11-28T16:36:34;9.40;99.90
7708;DHT22;3896;48.758;8.888;2022-11-28T16:41:41;9.40;99.90
7708;DHT22;3896;48.758;8.888;2022-11-28T16:44:13;9.40;99.90
7708;DHT22;3896;48.758;8.888;2022-11-28T16:46:47;9.40;99.90
7708;DHT22;3896;48.758;8.888;2022-11-28T16:54:47;9.30;99.90
7708;DHT22;3896;48.758;8.888;2022-11-28T16:57:13;9.30;99.90
7708;DHT22;3896;48.758;8.888;2022-11-28T16:59:40;9.30;99.90
7708;DHT22;3896;48.758;8.888;2022-11-28T17:02:19;9.30;99.90
7708;DHT22;3896;48.758;8.888;2022-11-28T17:04:47;9.20;99.90
7708;DHT22;3896;48.758;8.888;2022-11-28T17:07:18;9.20;99.90
7708;DHT22;3896;48.758;8.888;2022-11-28T17:09:45;9.20;99.90
7708;DHT22;3896;48.758;8.888;2022-11-28T17:12:33;9.20;99.90
7708;DHT22;3896;48.758;8.888;2022-11-28T17:15:02;9.20;99.90
7708;DHT22;3896;48.758;8.888;2022-11-28T17:17:29;9.20;99.90
7708;DHT22;3896;48.758;8.888;2022-11-28T17:19:55;9.20;99.90
7708;DHT22;3896;48.758;8.888;2022-11-28T17:22:41;9.20;99.90
7708;DHT22;3896;48.758;8.888;2022-11-28T17:25:14;9.10;99.90
7708;DHT22;3896;48.758;8.888;2022-11-28T17:27:41;9.10;99.90
7708;DHT22;3896;48.758;8.888;2022-11-28T17:30:08;9.10;99.90
7708;DHT22;3896;48.758;8.888;2022-11-28T17:32:33;9.10;99.90
7708;DHT22;3896;48.758;8.888;2022-11-28T17:34:59;9.10;99.90
7708;DHT22;3896;48.758;8.888;2022-11-28T17:37:28;9.10;99.90
7708;DHT22;3896;48.758;8.888;2022-11-28T17:39:54;9.10;99.90
7708;DHT22;3896;48.758;8.888;2022-11-28T17:42:37;9.10;99.90
7708;DHT22;3896;48.758;8.888;2022-11-28T17:45:05;9.10;99.90
7708;DHT22;3896;48.758;8.888;2022-11-28T17:47:35;9.00;99.90
7708;DHT22;3896;48.758;8.888;2022-11-28T17:50:00;9.00;99.90
7708;DHT22;3896;48.758;8.888;2022-11-28T17:52:26;9.00;99.90
7708;DHT22;3896;48.758;8.888;2022-11-28T17:54:54;9.00;99.90
7708;DHT22;3896;48.758;8.888;2022-11-28T17:57:21;9.00;99.90
7708;DHT22;3896;48.758;8.888;2022-11-28T17:59:47;9.00;99.90
7708;DHT22;3896;48.758;8.888;2022-11-28T18:02:12;8.90;99.90
7708;DHT22;3896;48.758;8.888;2022-11-28T18:04:38;8.90;99.90
7708;DHT22;3896;48.758;8.888;2022-11-28T18:07:03;8.90;99.90
7708;DHT22;3896;48.758;8.888;2022-11-28T18:09:29;8.90;99.90
7708;DHT22;3896;48.758;8.888;2022-11-28T18:11:54;8.90;99.90
7708;DHT22;3896;48.758;8.888;2022-11-28T18:14:20;8.90;99.90
7708;DHT22;3896;48.758;8.888;2022-11-28T18:16:45;8.90;99.90
7708;DHT22;3896;48.758;8.888;2022-11-28T18:19:11;8.90;99.90
7708;DHT22;3896;48.758;8.888;2022-11-28T18:21:37;8.90;99.90
7708;DHT22;3896;48.758;8.888;2022-11-28T18:24:03;8.90;99.90
7708;DHT22;3896;48.758;8.888;2022-11-28T18:26:29;8.90;99.90
7708;DHT22;3896;48.758;8.888;2022-11-28T18:28:57;8.90;99.90
7708;DHT22;3896;48.758;8.888;2022-11-28T18:31:25;8.90;99.90
7708;DHT22;3896;48.758;8.888;2022-11-28T18:33:52;8.80;99.90
7708;DHT22;3896;48.758;8.888;2022-11-28T18:36:23;8.80;99.90
7708;DHT22;3896;48.758;8.888;2022-11-28T18:39:14;8.80;99.90
7708;DHT22;3896;48.758;8.888;2022-11-28T18:41:40;8.80;99.90
7708;DHT22;3896;48.758;8.888;2022-11-28T18:44:05;8.80;99.90
7708;DHT22;3896;48.758;8.888;2022-11-28T18:46:34;8.80;99.90
7708;DHT22;3896;48.758;8.888;2022-11-28T18:49:00;8.80;99.90
7708;DHT22;3896;48.758;8.888;2022-11-28T18:51:28;8.80;99.90
7708;DHT22;3896;48.758;8.888;2022-11-28T18:53:55;8.80;99.90
7708;DHT22;3896;48.758;8.888;2022-11-28T18:56:21;8.80;99.90
7708;DHT22;3896;48.758;8.888;2022-11-28T18:58:49;8.80;99.90
7708;DHT22;3896;48.758;8.888;2022-11-28T19:01:24;8.80;99.90
7708;DHT22;3896;48.758;8.888;2022-11-28T19:04:01;8.80;99.90
7708;DHT22;3896;48.758;8.888;2022-11-28T19:06:27;8.80;99.90
7708;DHT22;3896;48.758;8.888;2022-11-28T19:08:59;8.80;99.90
7708;DHT22;3896;48.758;8.888;2022-11-28T19:11:25;8.70;99.90
7708;DHT22;3896;48.758;8.888;2022-11-28T19:13:52;8.70;99.90
7708;DHT22;3896;48.758;8.888;2022-11-28T19:16:24;8.70;99.90
7708;DHT22;3896;48.758;8.888;2022-11-28T19:18:50;8.70;99.90
7708;DHT22;3896;48.758;8.888;2022-11-28T19:21:18;8.70;99.90
7708;DHT22;3896;48.758;8.888;2022-11-28T19:23:44;8.70;99.90